Time;durP1;ratioP1;P1;durP2;ratioP2;P2;SDS_P1;SDS_P2;PMS_P1;PMS_P2;Temp;Humidity;BMP_temperature;BMP_pressure;BME280_temperature;BME280_humidity;BME280_pressure;Samples;Min_cycle;Max_cycle;Signal;HPM_P1;HPM_P2
2022/06/03 00:00:22;;;;;;;6.47;4.10;;;16.30;58.90;;;;;;5094840;28;20020;-70
2022/06/03 00:02:56;;;;;;;5.13;4.40;;;16.20;59.30;;;;;;5093634;28;20024;-70
2022/06/03 00:05:25;;;;;;;9.75;5.00;;;16.30;59.20;;;;;;5094580;28;20029;-70
2022/06/03 00:08:12;;;;;;;5.78;5.00;;;16.40;58.70;;;;;;5094536;28;20032;-70
2022/06/03 00:10:53;;;;;;;5.70;4.18;;;16.30;59.10;;;;;;5094479;28;20039;-70
2022/06/03 00:13:49;;;;;;;5.78;4.78;;;16.20;59.60;;;;;;5094576;28;20035;-70
2022/06/03 00:16:50;;;;;;;5.70;4.55;;;16.30;59.70;;;;;;5094391;28;20021;-70
2022/06/03 00:19:51;;;;;;;6.45;4.68;;;16.30;59.20;;;;;;5092315;28;20016;-70
2022/06/03 00:22:25;;;;;;;6.03;4.93;;;16.20;59.40;;;;;;5094257;28;20352;-70
2022/06/03 00:25:00;;;;;;;5.78;4.82;;;16.10;59.60;;;;;;5094213;28;20043;-70
2022/06/03 00:27:33;;;;;;;5.07;4.57;;;16.20;59.70;;;;;;5094159;28;20029;-70
2022/06/03 00:30:20;;;;;;;5.30;4.70;;;16.10;59.90;;;;;;5094045;28;20017;-70
2022/06/03 00:33:03;;;;;;;5.00;4.32;;;16.10;60.00;;;;;;5094135;28;20046;-70
2022/06/03 00:35:35;;;;;;;6.05;4.72;;;16.00;59.90;;;;;;5093045;28;20044;-70
2022/06/03 00:38:26;;;;;;;5.97;4.43;;;15.90;60.40;;;;;;5094134;28;20020;-70
2022/06/03 00:41:20;;;;;;;5.82;4.93;;;16.00;60.40;;;;;;5094028;28;20048;-70
2022/06/03 00:44:19;;;;;;;5.97;4.65;;;16.00;60.10;;;;;;5093898;28;20117;-70
2022/06/03 00:46:55;;;;;;;6.40;4.93;;;16.10;59.90;;;;;;5093898;28;20056;-70
2022/06/03 00:49:49;;;;;;;5.82;4.72;;;16.00;60.00;;;;;;5093736;28;20033;-70
2022/06/03 00:52:29;;;;;;;5.10;4.30;;;15.90;60.10;;;;;;5093664;28;20088;-70
2022/06/03 00:55:16;;;;;;;5.68;4.70;;;15.80;60.30;;;;;;5093487;28;20041;-70
2022/06/03 00:57:53;;;;;;;6.13;4.88;;;15.80;60.30;;;;;;5093764;28;20075;-70
2022/06/03 01:00:31;;;;;;;5.35;4.68;;;15.70;60.50;;;;;;5092608;28;20027;-70
2022/06/03 01:03:29;;;;;;;7.07;5.10;;;15.80;60.50;;;;;;5093509;28;20035;-70
2022/06/03 01:06:04;;;;;;;6.10;4.90;;;15.90;60.40;;;;;;5087769;28;20033;-70
2022/06/03 01:08:47;;;;;;;5.70;4.82;;;15.90;60.40;;;;;;5093478;28;20034;-70
2022/06/03 01:11:55;;;;;;;5.38;4.55;;;15.90;60.30;;;;;;5093524;28;20027;-70
2022/06/03 01:15:00;;;;;;;6.50;5.32;;;16.00;60.20;;;;;;5092536;28;20048;-70
2022/06/03 01:18:05;;;;;;;6.68;4.55;;;15.90;60.30;;;;;;5093498;28;20029;-70
2022/06/03 01:20:55;;;;;;;5.60;4.70;;;15.90;60.50;;;;;;5038966;28;20034;-70
2022/06/03 01:23:41;;;;;;;9.60;4.97;;;15.90;60.40;;;;;;5092387;28;20104;-70
2022/06/03 01:26:26;;;;;;;7.22;5.20;;;15.90;60.50;;;;;;5093288;28;20076;-70
2022/06/03 01:28:54;;;;;;;6.03;4.93;;;15.80;60.50;;;;;;5093133;28;20020;-70
2022/06/03 01:31:52;;;;;;;6.75;5.07;;;15.80;60.60;;;;;;5092891;28;20096;-70
2022/06/03 01:34:36;;;;;;;7.32;5.00;;;15.80;60.60;;;;;;5093297;28;20016;-70
2022/06/03 01:37:39;;;;;;;6.10;4.65;;;15.80;61.00;;;;;;5093124;28;20029;-70
2022/06/03 01:40:41;;;;;;;6.25;4.88;;;15.90;61.00;;;;;;5061644;28;20067;-70
2022/06/03 01:43:26;;;;;;;10.43;5.10;;;15.90;60.80;;;;;;5093289;28;20036;-70
2022/06/03 01:46:00;;;;;;;5.93;4.85;;;15.90;60.80;;;;;;5093107;28;20081;-70
2022/06/03 01:48:49;;;;;;;5.85;4.55;;;15.90;60.90;;;;;;5093063;28;20025;-70
2022/06/03 01:51:35;;;;;;;5.55;4.90;;;15.90;60.70;;;;;;5092874;28;20029;-70
2022/06/03 01:54:39;;;;;;;5.70;4.60;;;16.00;60.40;;;;;;5092906;28;20045;-70
2022/06/03 01:57:13;;;;;;;;;;;16.00;60.30;;;;;;5093382;28;20024;-70
2022/06/03 02:00:05;;;;;;;6.32;4.80;;;16.00;60.30;;;;;;5093048;28;19940;-70
2022/06/03 02:02:52;;;;;;;5.72;4.78;;;15.90;61.40;;;;;;5092906;28;20056;-70
2022/06/03 02:05:57;;;;;;;7.20;5.03;;;15.80;60.60;;;;;;5091880;28;20059;-70
2022/06/03 02:08:55;;;;;;;7.88;5.50;;;15.80;60.80;;;;;;5093029;28;20024;-70
2022/06/03 02:11:48;;;;;;;6.93;5.40;;;15.80;60.80;;;;;;5092869;28;20020;-70
2022/06/03 02:14:28;;;;;;;8.27;5.68;;;15.80;60.90;;;;;;5092859;28;20020;-70
2022/06/03 02:17:20;;;;;;;6.13;5.35;;;15.70;60.70;;;;;;5092796;28;20028;-70
2022/06/03 02:20:21;;;;;;;6.68;5.53;;;15.70;61.00;;;;;;5092803;28;20021;-70
2022/06/03 02:23:14;;;;;;;8.05;5.38;;;15.70;61.10;;;;;;5069064;28;20029;-70
2022/06/03 02:25:54;;;;;;;7.78;5.55;;;15.60;61.00;;;;;;5092718;28;20058;-70
2022/06/03 02:28:44;;;;;;;6.28;5.57;;;15.60;61.20;;;;;;5092623;28;20025;-70
2022/06/03 02:31:27;;;;;;;10.02;5.70;;;15.60;61.30;;;;;;5092673;28;20028;-70
2022/06/03 02:34:02;;;;;;;8.88;6.22;;;15.50;61.30;;;;;;5092635;28;20028;-70
2022/06/03 02:37:02;;;;;;;7.45;5.93;;;15.50;61.50;;;;;;5092584;28;20034;-70
2022/06/03 02:39:52;;;;;;;6.75;5.88;;;15.50;62.00;;;;;;5092578;28;20025;-70
2022/06/03 02:42:53;;;;;;;7.90;6.03;;;15.50;61.80;;;;;;5092143;28;20035;-70
2022/06/03 02:45:48;;;;;;;6.80;5.68;;;15.50;61.80;;;;;;5096277;28;20082;-70
2022/06/03 02:48:19;;;;;;;7.80;6.10;;;15.50;62.20;;;;;;5096145;28;20483;-70
2022/06/03 02:51:18;;;;;;;7.65;6.10;;;15.50;62.10;;;;;;5096019;28;20052;-70
2022/06/03 02:54:25;;;;;;;6.78;6.03;;;15.50;62.10;;;;;;5095867;28;20059;-70
2022/06/03 02:57:18;;;;;;;7.63;6.38;;;15.50;62.00;;;;;;5072276;28;20053;-70
2022/06/03 02:59:50;;;;;;;;;;;15.40;62.20;;;;;;5096449;28;20020;-70
2022/06/03 03:02:35;;;;;;;7.25;5.63;;;15.40;62.40;;;;;;5095943;28;20271;-70
2022/06/03 03:05:27;;;;;;;6.47;5.78;;;15.40;62.50;;;;;;5095963;28;20080;-70
2022/06/03 03:08:20;;;;;;;8.47;6.00;;;15.40;62.60;;;;;;5095785;28;20029;-70
2022/06/03 03:11:18;;;;;;;7.15;5.68;;;15.50;62.80;;;;;;5095794;28;20265;-70
2022/06/03 03:14:12;;;;;;;7.65;5.90;;;15.50;62.50;;;;;;5095627;28;20076;-70
2022/06/03 03:17:07;;;;;;;7.75;5.88;;;15.40;62.40;;;;;;5095576;28;20029;-70
2022/06/03 03:19:44;;;;;;;7.55;5.78;;;15.30;62.50;;;;;;5095523;28;20453;-70
2022/06/03 03:22:13;;;;;;;7.95;6.40;;;15.20;62.80;;;;;;5095614;28;20029;-70
2022/06/03 03:25:07;;;;;;;7.70;6.40;;;15.30;62.70;;;;;;5095384;28;20025;-70
2022/06/03 03:27:54;;;;;;;7.18;6.28;;;15.20;62.70;;;;;;5095384;28;20028;-70
2022/06/03 03:30:42;;;;;;;8.60;6.38;;;15.20;62.80;;;;;;5095430;28;20028;-70
2022/06/03 03:33:43;;;;;;;7.85;6.18;;;15.20;62.70;;;;;;5084175;28;20071;-70
2022/06/03 03:36:17;;;;;;;7.95;6.20;;;15.20;62.90;;;;;;5095245;28;20092;-70
2022/06/03 03:39:07;;;;;;;7.18;5.90;;;15.20;63.00;;;;;;5095359;28;20107;-70
2022/06/03 03:41:39;;;;;;;8.10;6.38;;;15.20;62.90;;;;;;5094130;28;20084;-70
2022/06/03 03:44:31;;;;;;;9.17;6.30;;;15.20;63.10;;;;;;5095073;28;20024;-70
2022/06/03 03:47:31;;;;;;;8.18;6.35;;;15.20;62.90;;;;;;5095147;28;20023;-70
2022/06/03 03:50:22;;;;;;;8.30;6.10;;;15.10;62.80;;;;;;5095074;28;20035;-70
2022/06/03 03:53:29;;;;;;;8.90;6.30;;;15.10;63.00;;;;;;5094858;28;20033;-70
2022/06/03 03:56:12;;;;;;;8.57;6.18;;;14.90;63.30;;;;;;5094971;28;20365;-70
2022/06/03 03:59:03;;;;;;;9.52;6.57;;;14.90;63.50;;;;;;5094896;28;20036;-70
2022/06/03 04:01:43;;;;;;;9.95;6.63;;;14.90;63.40;;;;;;5094796;28;20032;-70
2022/06/03 04:04:56;;;;;;;12.20;6.70;;;14.90;63.60;;;;;;5094799;28;20029;-70
2022/06/03 04:07:52;;;;;;;8.77;6.55;;;15.00;63.80;;;;;;5032826;28;20030;-70
2022/06/03 04:11:15;;;;;;;10.13;6.53;;;14.90;63.90;;;;;;5094509;28;20043;-70
2022/06/03 04:13:52;;;;;;;9.55;6.75;;;14.90;64.00;;;;;;5032790;28;20042;-70
2022/06/03 04:16:49;;;;;;;9.00;6.60;;;14.80;64.20;;;;;;5032961;28;20033;-70
2022/06/03 04:19:26;;;;;;;8.43;6.50;;;14.80;64.10;;;;;;5079606;28;20036;-70
2022/06/03 04:22:14;;;;;;;7.53;6.55;;;14.80;64.60;;;;;;5094237;28;20050;-70
2022/06/03 04:24:55;;;;;;;9.25;7.15;;;14.80;64.40;;;;;;5094231;28;20076;-70
2022/06/03 04:27:26;;;;;;;8.18;6.80;;;14.80;64.20;;;;;;5094316;28;20368;-70
2022/06/03 04:30:33;;;;;;;8.73;6.43;;;14.70;64.50;;;;;;5094000;28;20031;-70
2022/06/03 04:33:30;;;;;;;9.02;6.68;;;14.80;64.60;;;;;;5094116;28;20031;-70
2022/06/03 04:36:10;;;;;;;9.85;6.65;;;14.90;64.40;;;;;;5094097;28;20024;-70
2022/06/03 04:39:05;;;;;;;9.15;6.82;;;14.80;64.50;;;;;;5094074;28;20028;-70
2022/06/03 04:42:02;;;;;;;7.57;6.45;;;14.90;64.50;;;;;;5092952;28;20091;-70
2022/06/03 04:44:52;;;;;;;9.05;7.03;;;14.90;64.50;;;;;;5093933;28;20384;-70
2022/06/03 04:47:27;;;;;;;7.80;6.18;;;15.00;64.20;;;;;;5093799;28;20029;-71
2022/06/03 04:50:04;;;;;;;8.43;7.22;;;14.90;64.40;;;;;;5093734;28;20032;-71
2022/06/03 04:53:19;;;;;;;7.72;6.63;;;14.90;64.70;;;;;;5093749;28;20033;-71
2022/06/03 04:56:05;;;;;;;8.02;6.68;;;15.00;64.90;;;;;;5093693;28;20064;-71
2022/06/03 04:58:55;;;;;;;8.00;6.63;;;15.00;64.80;;;;;;5093765;28;20052;-71
2022/06/03 05:01:55;;;;;;;9.57;6.80;;;14.90;64.80;;;;;;5093711;28;20040;-71
2022/06/03 05:05:00;;;;;;;9.55;6.85;;;15.00;65.00;;;;;;5093628;28;20043;-71
2022/06/03 05:07:47;;;;;;;9.45;7.07;;;14.90;64.90;;;;;;5064528;28;20063;-71
2022/06/03 05:10:51;;;;;;;9.15;6.57;;;14.90;65.00;;;;;;5093595;28;20050;-71
2022/06/03 05:13:54;;;;;;;8.77;6.70;;;14.90;65.30;;;;;;5093264;28;20038;-71
2022/06/03 05:16:38;;;;;;;;;;;15.00;65.30;;;;;;5093749;28;20034;-71
2022/06/03 05:19:13;;;;;;;7.97;6.38;;;15.00;64.90;;;;;;5093254;28;19911;-71
2022/06/03 05:22:15;;;;;;;9.38;6.35;;;14.90;65.50;;;;;;5093369;28;20103;-71
2022/06/03 05:25:12;;;;;;;10.93;6.97;;;14.90;65.30;;;;;;5093214;28;20048;-71
2022/06/03 05:27:57;;;;;;;10.82;7.10;;;15.00;65.00;;;;;;5093158;28;20044;-70
2022/06/03 05:30:51;;;;;;;8.95;6.88;;;15.00;65.40;;;;;;5093292;28;20024;-70
2022/06/03 05:33:54;;;;;;;8.27;6.13;;;15.00;65.40;;;;;;5093112;28;20028;-70
2022/06/03 05:36:42;;;;;;;8.38;6.57;;;15.10;65.40;;;;;;5093144;28;20053;-70
2022/06/03 05:39:38;;;;;;;10.68;7.22;;;15.10;65.00;;;;;;5093062;28;20025;-70
2022/06/03 05:42:29;;;;;;;8.45;6.38;;;15.10;65.00;;;;;;5093254;28;20446;-70
2022/06/03 05:45:03;;;;;;;8.70;7.07;;;15.10;65.50;;;;;;5093235;28;20081;-70
2022/06/03 05:47:52;;;;;;;9.02;6.18;;;15.20;65.60;;;;;;5093031;28;20032;-70
2022/06/03 05:50:20;;;;;;;8.60;6.43;;;15.30;65.60;;;;;;5093031;28;20021;-70
2022/06/03 05:53:11;;;;;;;8.38;6.57;;;15.30;65.10;;;;;;5092900;28;20039;-70
2022/06/03 05:55:53;;;;;;;9.27;6.50;;;15.40;64.90;;;;;;5093153;28;20055;-70
2022/06/03 05:58:31;;;;;;;8.35;6.88;;;15.40;65.10;;;;;;5092992;28;20033;-70
2022/06/03 06:01:34;;;;;;;10.82;6.18;;;15.40;64.80;;;;;;5092974;28;20096;-70
2022/06/03 06:04:18;;;;;;;7.85;6.45;;;15.50;64.40;;;;;;5092899;28;20053;-70
2022/06/03 06:07:21;;;;;;;8.07;6.07;;;15.50;64.50;;;;;;5092907;28;20020;-70
2022/06/03 06:10:10;;;;;;;11.93;6.47;;;15.50;64.20;;;;;;5079539;28;20040;-72
2022/06/03 06:13:20;;;;;;;9.70;6.32;;;15.50;64.20;;;;;;5092757;28;20032;-72
2022/06/03 06:16:04;;;;;;;8.88;6.38;;;15.60;64.50;;;;;;5092957;28;20033;-72
2022/06/03 06:18:50;;;;;;;8.98;6.78;;;15.70;64.00;;;;;;5095324;28;20024;-72
2022/06/03 06:22:00;;;;;;;9.80;6.68;;;15.80;63.90;;;;;;5096651;28;20028;-72
2022/06/03 06:24:46;;;;;;;9.05;6.10;;;15.80;63.70;;;;;;5034799;28;20026;-72
2022/06/03 06:27:38;;;;;;;7.43;6.35;;;15.80;64.10;;;;;;5092033;28;20043;-72
2022/06/03 06:30:34;;;;;;;8.50;6.80;;;16.00;64.00;;;;;;5096483;28;20068;-72
2022/06/03 06:33:46;;;;;;;9.65;6.82;;;16.00;63.70;;;;;;5096450;28;20033;-72
2022/06/03 06:36:30;;;;;;;8.18;6.47;;;16.10;63.70;;;;;;5096382;28;20050;-72
2022/06/03 06:39:22;;;;;;;7.95;6.13;;;16.10;63.90;;;;;;5096336;28;20081;-72
2022/06/03 06:42:26;;;;;;;8.18;6.45;;;16.20;63.60;;;;;;5096286;28;20027;-70
2022/06/03 06:45:29;;;;;;;6.93;5.90;;;16.30;63.90;;;;;;5096352;28;20021;-70
2022/06/03 06:48:37;;;;;;;9.02;6.70;;;16.40;63.20;;;;;;5096147;28;20033;-70
2022/06/03 06:51:30;;;;;;;9.23;6.57;;;16.50;63.70;;;;;;5096223;28;20025;-70
2022/06/03 06:54:01;;;;;;;7.65;6.25;;;16.60;63.90;;;;;;5094648;28;20068;-70
2022/06/03 06:56:36;;;;;;;7.10;6.07;;;16.70;63.50;;;;;;5095967;28;20039;-70
2022/06/03 06:59:06;;;;;;;8.75;6.80;;;16.80;62.90;;;;;;5095888;28;20056;-70
2022/06/03 07:01:50;;;;;;;8.38;6.40;;;16.80;63.10;;;;;;5095878;28;20088;-70
2022/06/03 07:04:29;;;;;;;6.80;6.10;;;16.90;62.80;;;;;;5095858;28;20032;-69
2022/06/03 07:07:20;;;;;;;7.32;5.82;;;17.00;63.00;;;;;;5095956;28;20070;-70
2022/06/03 07:10:07;;;;;;;10.38;6.60;;;17.10;63.00;;;;;;5095765;28;20035;-70
2022/06/03 07:12:42;;;;;;;8.40;6.45;;;17.20;62.80;;;;;;5095601;28;20031;-71
2022/06/03 07:15:20;;;;;;;7.82;6.13;;;17.20;62.60;;;;;;5095761;28;20024;-72
2022/06/03 07:21:09;;;;;;;8.27;6.50;;;17.40;61.90;;;;;;5095024;28;20036;-71
2022/06/03 07:23:59;;;;;;;9.65;6.38;;;17.50;62.20;;;;;;5095657;28;20020;-71
2022/06/03 07:26:40;;;;;;;6.43;5.68;;;17.60;61.90;;;;;;5095470;28;20024;-71
2022/06/03 07:29:20;;;;;;;10.45;6.18;;;17.70;61.70;;;;;;5094836;28;20021;-71
2022/06/03 07:31:59;;;;;;;7.93;6.78;;;17.70;61.60;;;;;;5095386;28;20399;-71
2022/06/03 07:34:39;;;;;;;9.48;6.10;;;17.80;61.00;;;;;;5094326;28;20093;-71
2022/06/03 07:37:19;;;;;;;8.82;6.20;;;17.90;61.50;;;;;;5095234;28;20024;-71
2022/06/03 07:40:06;;;;;;;8.07;5.75;;;18.00;61.10;;;;;;5095294;28;20020;-70
2022/06/03 07:42:47;;;;;;;7.80;5.60;;;18.00;61.00;;;;;;5095151;28;20078;-70
2022/06/03 07:45:38;;;;;;;6.07;4.88;;;18.10;60.10;;;;;;5095078;28;20048;-70
2022/06/03 07:48:18;;;;;;;6.90;5.40;;;18.20;60.40;;;;;;5095039;28;20017;-70
2022/06/03 07:51:05;;;;;;;6.20;5.25;;;18.30;60.00;;;;;;5093933;28;20025;-70
2022/06/03 07:53:43;;;;;;;8.73;5.82;;;18.40;60.10;;;;;;5094624;28;20044;-70
2022/06/03 07:56:09;;;;;;;6.85;5.25;;;18.40;59.50;;;;;;5094844;28;20033;-70
2022/06/03 07:58:37;;;;;;;7.40;5.22;;;18.50;59.90;;;;;;5094735;28;20027;-70
2022/06/03 08:01:19;;;;;;;7.07;5.10;;;18.60;59.60;;;;;;5094746;28;20160;-70
2022/06/03 08:03:46;;;;;;;5.97;4.78;;;18.80;59.40;;;;;;5094728;28;20043;-70
2022/06/03 08:06:14;;;;;;;5.63;4.60;;;18.80;58.60;;;;;;5094628;28;20016;-70
2022/06/03 08:11:33;;;;;;;8.75;4.68;;;19.00;58.00;;;;;;5094531;28;20036;-70
2022/06/03 08:14:01;;;;;;;6.23;4.40;;;19.10;58.50;;;;;;5094488;28;20107;-70
2022/06/03 08:16:33;;;;;;;8.52;4.70;;;19.20;58.20;;;;;;5094345;28;20046;-71
2022/06/03 08:19:07;;;;;;;6.95;4.70;;;19.30;58.30;;;;;;5094432;28;20174;-71
2022/06/03 08:21:46;;;;;;;6.50;4.75;;;19.30;56.20;;;;;;5094353;28;20081;-71
2022/06/03 08:24:16;;;;;;;8.68;5.05;;;19.40;57.50;;;;;;5094292;28;20020;-71
2022/06/03 08:26:46;;;;;;;7.72;4.95;;;19.50;57.90;;;;;;5094345;28;20028;-71
2022/06/03 08:29:29;;;;;;;6.93;5.22;;;19.60;58.20;;;;;;5094129;28;20107;-70
2022/06/03 08:31:58;;;;;;;6.88;5.55;;;19.70;58.30;;;;;;5094140;28;20035;-71
2022/06/03 08:34:33;;;;;;;6.35;5.10;;;19.70;58.10;;;;;;5094068;28;20047;-71
2022/06/03 08:37:01;;;;;;;8.10;5.40;;;19.80;57.70;;;;;;5094118;28;20059;-70
2022/06/03 08:39:33;;;;;;;7.88;5.20;;;19.90;58.80;;;;;;5093592;28;20051;-71
2022/06/03 08:42:01;;;;;;;6.70;5.30;;;20.00;58.30;;;;;;5093591;28;20108;-71
2022/06/03 08:44:42;;;;;;;8.35;5.40;;;20.00;58.40;;;;;;5093997;28;20040;-71
2022/06/03 08:47:37;;;;;;;9.43;5.45;;;20.10;57.70;;;;;;5093832;28;20444;-71
2022/06/03 08:50:11;;;;;;;7.53;5.10;;;20.20;57.70;;;;;;5093923;28;20032;-70
2022/06/03 08:52:39;;;;;;;8.02;5.07;;;20.20;57.00;;;;;;5093711;28;20088;-71
2022/06/03 08:55:32;;;;;;;7.72;5.45;;;20.20;56.70;;;;;;5093376;28;20045;-71
2022/06/03 08:58:16;;;;;;;8.45;5.38;;;20.20;57.00;;;;;;5082897;28;20036;-71
2022/06/03 09:01:00;;;;;;;6.40;4.95;;;20.20;56.50;;;;;;5093799;28;20012;-71
2022/06/03 09:03:35;;;;;;;7.57;5.07;;;20.30;56.30;;;;;;5093726;28;20092;-71
2022/06/03 09:06:11;;;;;;;6.70;5.32;;;20.30;56.50;;;;;;5093672;28;20103;-71
2022/06/03 09:08:55;;;;;;;8.18;5.65;;;20.40;56.60;;;;;;5093527;28;20032;-71
2022/06/03 09:11:41;;;;;;;6.80;4.88;;;20.50;56.30;;;;;;5093517;28;20025;-70
2022/06/03 09:14:12;;;;;;;5.97;5.00;;;20.60;56.40;;;;;;5093442;28;20076;-70
2022/06/03 09:16:40;;;;;;;5.05;4.22;;;20.70;56.90;;;;;;5093482;28;20025;-70
2022/06/03 09:19:17;;;;;;;5.45;4.85;;;20.80;55.90;;;;;;5093321;28;20547;-70
2022/06/03 09:21:48;;;;;;;4.65;4.03;;;21.00;55.60;;;;;;5093462;28;20017;-70
2022/06/03 09:24:17;;;;;;;5.75;3.80;;;21.00;55.20;;;;;;5093501;28;20029;-70
2022/06/03 09:26:50;;;;;;;4.72;4.00;;;21.10;54.20;;;;;;5093337;28;20055;-70
2022/06/03 09:29:17;;;;;;;6.55;4.55;;;21.10;53.90;;;;;;5093184;28;20028;-70
2022/06/03 09:31:50;;;;;;;5.35;4.22;;;21.20;54.30;;;;;;5093131;28;20020;-70
2022/06/03 09:34:22;;;;;;;7.22;4.40;;;21.20;54.00;;;;;;5092149;28;20091;-70
2022/06/03 09:36:49;;;;;;;4.45;3.97;;;21.30;54.10;;;;;;5093256;28;20055;-70
2022/06/03 09:39:18;;;;;;;4.60;3.80;;;21.40;54.20;;;;;;5093137;28;20025;-70
2022/06/03 09:41:49;;;;;;;5.03;3.65;;;21.50;53.50;;;;;;5093064;28;20028;-70
2022/06/03 09:44:21;;;;;;;5.63;4.40;;;21.60;53.40;;;;;;5093166;28;20027;-70
2022/06/03 09:46:52;;;;;;;4.53;3.67;;;21.70;53.40;;;;;;5092925;28;20025;-70
2022/06/03 09:49:19;;;;;;;4.88;3.63;;;21.70;49.90;;;;;;5093091;28;20036;-70
2022/06/03 09:52:00;;;;;;;3.80;3.05;;;21.80;50.30;;;;;;5094420;28;20031;-70
2022/06/03 09:54:39;;;;;;;6.43;3.45;;;21.80;48.90;;;;;;5097145;28;20063;-70
2022/06/03 09:57:27;;;;;;;3.40;2.53;;;21.80;49.90;;;;;;5097165;28;20025;-70
2022/06/03 09:59:59;;;;;;;4.05;2.55;;;22.00;49.40;;;;;;5097134;28;20012;-70
2022/06/03 10:02:26;;;;;;;3.13;2.20;;;22.10;48.50;;;;;;5096034;28;20087;-71
2022/06/03 10:04:53;;;;;;;3.22;2.20;;;22.20;48.40;;;;;;5096968;28;20021;-71
2022/06/03 10:07:19;;;;;;;4.25;2.40;;;22.20;45.00;;;;;;5096949;28;20028;-71
2022/06/03 10:12:49;;;;;;;2.78;2.10;;;22.40;44.70;;;;;;5096944;28;20062;-71
2022/06/03 10:18:05;;;;;;;4.97;3.00;;;22.50;43.10;;;;;;5096764;28;20097;-71
2022/06/03 10:20:32;;;;;;;2.78;2.25;;;22.60;44.60;;;;;;5096627;28;20024;-71
2022/06/03 10:22:59;;;;;;;3.70;2.40;;;22.60;42.80;;;;;;5096638;28;20449;-71
2022/06/03 10:25:27;;;;;;;3.70;2.50;;;22.70;43.10;;;;;;5096533;28;20020;-71
2022/06/03 10:27:53;;;;;;;2.40;2.20;;;22.80;45.20;;;;;;5096476;28;20029;-71
2022/06/03 10:30:28;;;;;;;2.58;2.30;;;23.00;46.10;;;;;;5095415;28;20052;-71
2022/06/03 10:32:54;;;;;;;2.88;2.30;;;23.00;45.10;;;;;;5096359;28;20029;-71
2022/06/03 10:35:26;;;;;;;2.70;2.33;;;23.10;45.50;;;;;;5096505;28;20035;-71
2022/06/03 10:38:01;;;;;;;3.38;2.67;;;23.20;44.40;;;;;;5096485;28;20017;-71
2022/06/03 10:40:28;;;;;;;2.78;2.33;;;23.20;43.40;;;;;;5096349;28;20047;-71
2022/06/03 10:42:55;;;;;;;2.33;2.13;;;23.30;42.90;;;;;;5096144;28;20113;-71
2022/06/03 10:45:34;;;;;;;5.38;2.58;;;23.30;43.60;;;;;;5095167;28;20020;-71
2022/06/03 10:48:00;;;;;;;4.22;2.70;;;23.40;44.50;;;;;;5096155;28;20028;-71
2022/06/03 10:50:35;;;;;;;4.50;2.58;;;23.40;43.60;;;;;;5096071;28;20055;-71
2022/06/03 11:01:57;;;;;;;2.50;2.10;;;23.70;42.90;;;;;;5095959;28;20063;-71
2022/06/03 11:04:37;;;;;;;3.38;2.05;;;23.80;44.20;;;;;;5094885;28;20046;-71
2022/06/03 11:07:29;;;;;;;2.50;2.10;;;23.90;41.10;;;;;;5095872;28;20468;-71
2022/06/03 11:09:56;;;;;;;;;;;24.00;41.50;;;;;;5095158;28;20021;-72
2022/06/03 11:12:24;;;;;;;3.72;2.22;;;24.00;41.10;;;;;;5095655;28;19931;-71
2022/06/03 11:14:49;;;;;;;4.13;2.67;;;24.10;41.90;;;;;;5094518;28;20016;-70
2022/06/03 11:17:20;;;;;;;2.70;2.38;;;24.10;39.10;;;;;;5095579;28;20028;-71
2022/06/03 11:19:52;;;;;;;2.95;2.20;;;24.10;40.20;;;;;;5095714;28;20021;-71
2022/06/03 11:22:30;;;;;;;4.68;2.05;;;24.10;40.40;;;;;;5095681;28;20025;-71
2022/06/03 11:24:57;;;;;;;2.15;1.95;;;24.20;41.30;;;;;;5095618;28;20036;-71
2022/06/03 11:27:46;;;;;;;2.40;1.60;;;24.40;39.90;;;;;;5095418;28;20021;-71
2022/06/03 11:30:52;;;;;;;2.15;1.95;;;24.40;38.30;;;;;;5095411;28;20028;-71
2022/06/03 11:33:39;;;;;;;2.17;1.90;;;24.40;36.30;;;;;;5095299;28;20097;-71
2022/06/03 11:36:19;;;;;;;2.85;1.60;;;24.40;37.00;;;;;;5095325;28;20060;-71
2022/06/03 11:38:59;;;;;;;3.00;1.50;;;24.30;37.10;;;;;;5095294;28;20037;-71
2022/06/03 11:41:28;;;;;;;2.03;1.63;;;24.30;33.60;;;;;;5095254;28;20013;-71
2022/06/03 11:44:03;;;;;;;3.17;1.63;;;24.30;33.80;;;;;;5095114;28;20031;-71
2022/06/03 11:46:34;;;;;;;3.67;1.60;;;24.20;33.80;;;;;;5095136;28;20046;-71
2022/06/03 11:49:01;;;;;;;1.80;1.70;;;24.20;36.00;;;;;;5095223;28;20024;-71
2022/06/03 11:51:27;;;;;;;4.20;1.95;;;24.20;35.30;;;;;;5094882;28;20017;-71
2022/06/03 11:53:53;;;;;;;2.90;1.85;;;24.20;36.90;;;;;;5094760;28;20083;-74
2022/06/03 11:56:28;;;;;;;5.00;2.10;;;24.30;35.40;;;;;;5094887;28;20025;-71
2022/06/03 11:59:07;;;;;;;1.50;1.40;;;24.40;34.70;;;;;;5094858;28;20044;-72
2022/06/03 12:01:38;;;;;;;2.58;1.77;;;24.30;35.50;;;;;;5094811;28;20023;-70
2022/06/03 12:04:43;;;;;;;4.45;2.50;;;24.40;36.70;;;;;;5094765;28;20040;-72
2022/06/03 12:07:36;;;;;;;2.60;2.35;;;24.50;34.50;;;;;;5093734;28;20195;-71
2022/06/03 12:10:29;;;;;;;4.05;2.50;;;24.40;35.50;;;;;;5094767;28;20028;-71
2022/06/03 12:13:30;;;;;;;2.70;2.22;;;24.50;36.30;;;;;;5087167;28;20029;-72
2022/06/03 12:15:56;;;;;;;2.95;2.35;;;24.70;37.70;;;;;;5094535;28;20025;-72
2022/06/03 12:18:37;;;;;;;2.63;1.90;;;24.80;37.30;;;;;;5094391;28;20017;-71
2022/06/03 12:21:05;;;;;;;3.83;2.22;;;25.00;37.20;;;;;;5094535;28;20108;-71
2022/06/03 12:23:33;;;;;;;3.17;2.20;;;25.20;38.00;;;;;;5094314;28;20048;-72
2022/06/03 12:25:58;;;;;;;6.18;2.15;;;25.30;37.00;;;;;;5094262;28;20071;-71
2022/06/03 12:28:32;;;;;;;2.60;2.40;;;25.40;36.70;;;;;;5094156;28;20472;-72
2022/06/03 12:31:02;;;;;;;3.65;2.40;;;25.50;36.50;;;;;;5094206;28;20024;-71
2022/06/03 12:33:34;;;;;;;2.83;2.50;;;25.50;37.10;;;;;;5094112;28;20024;-71
2022/06/03 12:36:05;;;;;;;3.17;2.50;;;25.50;37.10;;;;;;5094234;28;20017;-71
2022/06/03 12:38:33;;;;;;;3.08;2.40;;;25.60;36.70;;;;;;5094220;28;20028;-71
2022/06/03 12:41:04;;;;;;;3.70;2.38;;;25.60;35.30;;;;;;5093937;28;20104;-71
2022/06/03 12:43:51;;;;;;;4.43;2.00;;;25.70;36.60;;;;;;5093964;28;20021;-69
2022/06/03 12:46:43;;;;;;;4.55;2.10;;;25.80;36.80;;;;;;5093804;28;20103;-68
2022/06/03 12:49:43;;;;;;;4.20;2.60;;;26.00;35.20;;;;;;5093997;28;20032;-68
2022/06/03 12:52:20;;;;;;;2.15;1.95;;;25.90;34.20;;;;;;5060810;28;20037;-68
2022/06/03 12:55:12;;;;;;;3.05;2.00;;;25.90;34.70;;;;;;5093663;28;20070;-68
2022/06/03 12:57:53;;;;;;;3.15;1.90;;;26.10;35.00;;;;;;5093761;28;20079;-68
2022/06/03 13:00:19;;;;;;;2.58;2.35;;;26.10;36.00;;;;;;5093715;28;20021;-70
2022/06/03 13:02:52;;;;;;;3.35;3.05;;;26.10;34.00;;;;;;5093578;28;20040;-71
2022/06/03 13:05:36;;;;;;;2.45;2.25;;;26.10;32.50;;;;;;5093593;28;20029;-71
2022/06/03 13:08:12;;;;;;;3.53;2.58;;;25.90;33.90;;;;;;5093660;28;20029;-71
2022/06/03 13:11:05;;;;;;;2.53;2.20;;;25.80;34.10;;;;;;5093555;28;20025;-71
2022/06/03 13:13:34;;;;;;;4.03;2.20;;;25.70;33.10;;;;;;5093591;28;20055;-71
2022/06/03 13:16:19;;;;;;;2.10;1.90;;;25.50;35.40;;;;;;5093457;28;20024;-71
2022/06/03 13:18:56;;;;;;;3.95;1.95;;;25.70;36.80;;;;;;5093545;28;20021;-71
2022/06/03 13:21:24;;;;;;;2.35;2.00;;;25.80;35.60;;;;;;5093410;28;20047;-71
2022/06/03 13:23:56;;;;;;;2.45;1.83;;;25.90;35.20;;;;;;5093403;28;20054;-71
2022/06/03 13:26:22;;;;;;;1.90;1.75;;;26.00;36.20;;;;;;5092907;28;20025;-70
2022/06/03 13:28:51;;;;;;;1.95;1.83;;;26.10;34.50;;;;;;5093269;28;20024;-71
2022/06/03 13:31:38;;;;;;;2.17;1.98;;;26.20;34.20;;;;;;5093256;28;20043;-71
2022/06/03 13:34:12;;;;;;;2.13;1.90;;;26.30;34.30;;;;;;5093349;28;20089;-71
2022/06/03 13:36:46;;;;;;;2.78;1.67;;;26.30;35.10;;;;;;5093361;28;20143;-71
2022/06/03 13:39:24;;;;;;;3.13;1.80;;;26.40;35.30;;;;;;5093349;28;20024;-71
2022/06/03 13:44:43;;;;;;;2.13;1.85;;;26.60;34.80;;;;;;5093286;28;20490;-71
2022/06/03 13:47:23;;;;;;;1.90;1.70;;;26.60;33.50;;;;;;5093256;28;20032;-71
2022/06/03 13:49:55;;;;;;;3.65;1.90;;;26.60;33.30;;;;;;5093137;28;20033;-71
2022/06/03 13:52:25;;;;;;;1.85;1.70;;;26.60;34.30;;;;;;5093157;28;20024;-71
2022/06/03 13:54:54;;;;;;;2.03;1.67;;;26.60;33.10;;;;;;5092922;28;20045;-71
2022/06/03 13:57:30;;;;;;;2.25;1.83;;;26.60;33.80;;;;;;5092982;28;20076;-71
2022/06/03 14:00:32;;;;;;;6.22;2.20;;;26.50;32.50;;;;;;5093175;28;20020;-70
2022/06/03 14:03:04;;;;;;;3.35;1.85;;;26.20;31.30;;;;;;5093061;28;20029;-70
2022/06/03 14:05:40;;;;;;;2.58;1.80;;;25.90;33.80;;;;;;5092928;28;20025;-70
2022/06/03 14:08:14;;;;;;;3.28;2.40;;;25.80;34.10;;;;;;5092897;28;20092;-70
2022/06/03 14:11:08;;;;;;;3.38;2.42;;;25.80;35.70;;;;;;5092834;28;20032;-70
2022/06/03 14:13:56;;;;;;;3.00;2.30;;;25.80;36.50;;;;;;5087051;28;20044;-70
2022/06/03 14:16:31;;;;;;;6.97;3.45;;;25.80;36.10;;;;;;5092803;28;20466;-70
2022/06/03 14:19:28;;;;;;;2.78;2.30;;;25.80;36.60;;;;;;5092756;28;20035;-70
2022/06/03 14:21:55;;;;;;;3.30;1.95;;;25.90;34.40;;;;;;5091640;28;20037;-69
2022/06/03 14:24:24;;;;;;;3.85;2.22;;;25.80;34.50;;;;;;5092710;28;20040;-69
2022/06/03 14:27:01;;;;;;;4.55;2.13;;;25.80;35.80;;;;;;5092732;28;20025;-69
2022/06/03 14:29:35;;;;;;;2.53;1.70;;;25.80;36.00;;;;;;5092646;28;20456;-70